sensor_id;sensor_type;location;lat;lon;timestamp;pressure;altitude;pressure_sealevel;temperature
15062;BMP180;7630;50.306;8.566;2023-10-09T00:02:11;98388.00;;;17.00
15062;BMP180;7630;50.306;8.566;2023-10-09T00:06:15;98389.00;;;17.10
15062;BMP180;7630;50.306;8.566;2023-10-09T00:10:18;98389.00;;;17.00
15062;BMP180;7630;50.306;8.566;2023-10-09T00:14:20;98384.00;;;16.70
15062;BMP180;7630;50.306;8.566;2023-10-09T00:18:22;98375.00;;;16.80
15062;BMP180;7630;50.306;8.566;2023-10-09T00:22:25;98374.00;;;16.90
15062;BMP180;7630;50.306;8.566;2023-10-09T00:26:30;98362.00;;;16.90
15062;BMP180;7630;50.306;8.566;2023-10-09T00:30:33;98352.00;;;17.10
15062;BMP180;7630;50.306;8.566;2023-10-09T00:34:36;98352.00;;;17.10
15062;BMP180;7630;50.306;8.566;2023-10-09T00:38:39;98327.00;;;17.10
15062;BMP180;7630;50.306;8.566;2023-10-09T00:42:45;98325.00;;;17.10
15062;BMP180;7630;50.306;8.566;2023-10-09T00:46:48;98321.00;;;17.20
15062;BMP180;7630;50.306;8.566;2023-10-09T00:50:51;98317.00;;;17.30
15062;BMP180;7630;50.306;8.566;2023-10-09T00:54:55;98316.00;;;16.70
15062;BMP180;7630;50.306;8.566;2023-10-09T00:58:59;98318.00;;;16.90
15062;BMP180;7630;50.306;8.566;2023-10-09T01:07:20;98305.00;;;16.90
15062;BMP180;7630;50.306;8.566;2023-10-09T01:11:23;98305.00;;;17.00
15062;BMP180;7630;50.306;8.566;2023-10-09T01:15:26;98300.00;;;17.00
15062;BMP180;7630;50.306;8.566;2023-10-09T01:19:37;98306.00;;;16.80
15062;BMP180;7630;50.306;8.566;2023-10-09T01:23:43;98309.00;;;16.80
15062;BMP180;7630;50.306;8.566;2023-10-09T01:27:58;98317.00;;;16.70
15062;BMP180;7630;50.306;8.566;2023-10-09T01:31:59;98310.00;;;16.50
15062;BMP180;7630;50.306;8.566;2023-10-09T01:36:03;98308.00;;;16.20
15062;BMP180;7630;50.306;8.566;2023-10-09T01:40:06;98306.00;;;16.70
15062;BMP180;7630;50.306;8.566;2023-10-09T01:44:18;98303.00;;;16.90
15062;BMP180;7630;50.306;8.566;2023-10-09T01:48:20;98305.00;;;16.90
15062;BMP180;7630;50.306;8.566;2023-10-09T01:52:23;98309.00;;;16.70
15062;BMP180;7630;50.306;8.566;2023-10-09T01:56:24;98311.00;;;16.60
15062;BMP180;7630;50.306;8.566;2023-10-09T02:00:26;98312.00;;;16.70
15062;BMP180;7630;50.306;8.566;2023-10-09T02:04:29;98313.00;;;16.70
15062;BMP180;7630;50.306;8.566;2023-10-09T02:08:30;98305.00;;;16.70
15062;BMP180;7630;50.306;8.566;2023-10-09T02:12:33;98305.00;;;16.80
15062;BMP180;7630;50.306;8.566;2023-10-09T02:16:35;98308.00;;;16.80
15062;BMP180;7630;50.306;8.566;2023-10-09T02:20:38;98300.00;;;16.90
15062;BMP180;7630;50.306;8.566;2023-10-09T02:24:41;98298.00;;;16.80
15062;BMP180;7630;50.306;8.566;2023-10-09T02:28:53;98288.00;;;16.90
15062;BMP180;7630;50.306;8.566;2023-10-09T02:33:02;98283.00;;;16.90
15062;BMP180;7630;50.306;8.566;2023-10-09T02:37:08;98281.00;;;16.70
15062;BMP180;7630;50.306;8.566;2023-10-09T02:41:11;98274.00;;;16.70
15062;BMP180;7630;50.306;8.566;2023-10-09T02:45:14;98282.00;;;16.80
15062;BMP180;7630;50.306;8.566;2023-10-09T02:49:17;98278.00;;;16.50
15062;BMP180;7630;50.306;8.566;2023-10-09T02:53:19;98264.00;;;16.40
15062;BMP180;7630;50.306;8.566;2023-10-09T02:57:21;98262.00;;;16.80
15062;BMP180;7630;50.306;8.566;2023-10-09T03:01:25;98249.00;;;16.50
15062;BMP180;7630;50.306;8.566;2023-10-09T03:05:27;98251.00;;;16.50
15062;BMP180;7630;50.306;8.566;2023-10-09T03:09:29;98245.00;;;16.80
15062;BMP180;7630;50.306;8.566;2023-10-09T03:13:35;98231.00;;;16.60
15062;BMP180;7630;50.306;8.566;2023-10-09T03:17:36;98229.00;;;17.00
15062;BMP180;7630;50.306;8.566;2023-10-09T03:21:37;98233.00;;;16.70
15062;BMP180;7630;50.306;8.566;2023-10-09T03:25:39;98225.00;;;16.80
15062;BMP180;7630;50.306;8.566;2023-10-09T03:29:40;98226.00;;;16.90
15062;BMP180;7630;50.306;8.566;2023-10-09T03:33:41;98227.00;;;16.80
15062;BMP180;7630;50.306;8.566;2023-10-09T03:37:42;98227.00;;;16.90
15062;BMP180;7630;50.306;8.566;2023-10-09T03:41:44;98226.00;;;17.20
15062;BMP180;7630;50.306;8.566;2023-10-09T03:45:47;98231.00;;;17.40
15062;BMP180;7630;50.306;8.566;2023-10-09T03:49:54;98240.00;;;17.70
15062;BMP180;7630;50.306;8.566;2023-10-09T03:53:56;98231.00;;;17.50
15062;BMP180;7630;50.306;8.566;2023-10-09T03:57:58;98232.00;;;18.00
15062;BMP180;7630;50.306;8.566;2023-10-09T04:02:00;98233.00;;;18.40
15062;BMP180;7630;50.306;8.566;2023-10-09T04:06:01;98249.00;;;18.50
15062;BMP180;7630;50.306;8.566;2023-10-09T04:10:03;98246.00;;;18.30
15062;BMP180;7630;50.306;8.566;2023-10-09T04:14:06;98238.00;;;18.30
15062;BMP180;7630;50.306;8.566;2023-10-09T04:18:09;98237.00;;;18.30
15062;BMP180;7630;50.306;8.566;2023-10-09T04:22:12;98229.00;;;18.00
15062;BMP180;7630;50.306;8.566;2023-10-09T04:26:15;98223.00;;;18.40
15062;BMP180;7630;50.306;8.566;2023-10-09T04:30:16;98228.00;;;18.30
15062;BMP180;7630;50.306;8.566;2023-10-09T04:34:18;98229.00;;;18.50
15062;BMP180;7630;50.306;8.566;2023-10-09T04:38:23;98245.00;;;18.70
15062;BMP180;7630;50.306;8.566;2023-10-09T04:42:25;98240.00;;;18.40
15062;BMP180;7630;50.306;8.566;2023-10-09T04:46:29;98237.00;;;18.50
15062;BMP180;7630;50.306;8.566;2023-10-09T04:50:33;98244.00;;;18.50
15062;BMP180;7630;50.306;8.566;2023-10-09T04:54:36;98229.00;;;18.10
15062;BMP180;7630;50.306;8.566;2023-10-09T04:58:44;98235.00;;;18.40
15062;BMP180;7630;50.306;8.566;2023-10-09T05:02:47;98241.00;;;18.30
15062;BMP180;7630;50.306;8.566;2023-10-09T05:06:50;98231.00;;;18.40
15062;BMP180;7630;50.306;8.566;2023-10-09T05:10:58;98227.00;;;18.40
15062;BMP180;7630;50.306;8.566;2023-10-09T05:15:02;98228.00;;;18.40
15062;BMP180;7630;50.306;8.566;2023-10-09T05:19:10;98242.00;;;18.30
15062;BMP180;7630;50.306;8.566;2023-10-09T05:23:13;98231.00;;;18.80
15062;BMP180;7630;50.306;8.566;2023-10-09T05:27:27;98235.00;;;18.80
15062;BMP180;7630;50.306;8.566;2023-10-09T05:31:47;98232.00;;;19.00
15062;BMP180;7630;50.306;8.566;2023-10-09T05:36:08;98232.00;;;18.90
15062;BMP180;7630;50.306;8.566;2023-10-09T05:40:22;98232.00;;;18.70
15062;BMP180;7630;50.306;8.566;2023-10-09T05:44:24;98231.00;;;18.70
15062;BMP180;7630;50.306;8.566;2023-10-09T05:48:43;98234.00;;;18.90
15062;BMP180;7630;50.306;8.566;2023-10-09T05:52:47;98229.00;;;19.00
15062;BMP180;7630;50.306;8.566;2023-10-09T05:56:56;98227.00;;;19.10
15062;BMP180;7630;50.306;8.566;2023-10-09T06:01:02;98234.00;;;19.40
15062;BMP180;7630;50.306;8.566;2023-10-09T06:05:08;98250.00;;;19.50
15062;BMP180;7630;50.306;8.566;2023-10-09T06:09:15;98243.00;;;19.40
15062;BMP180;7630;50.306;8.566;2023-10-09T06:13:18;98242.00;;;19.00
15062;BMP180;7630;50.306;8.566;2023-10-09T06:17:30;98242.00;;;19.10
15062;BMP180;7630;50.306;8.566;2023-10-09T06:21:36;98235.00;;;19.60
15062;BMP180;7630;50.306;8.566;2023-10-09T06:25:43;98230.00;;;19.80
15062;BMP180;7630;50.306;8.566;2023-10-09T06:29:46;98230.00;;;20.30
15062;BMP180;7630;50.306;8.566;2023-10-09T06:33:52;98234.00;;;20.40
15062;BMP180;7630;50.306;8.566;2023-10-09T06:37:57;98223.00;;;19.90
15062;BMP180;7630;50.306;8.566;2023-10-09T06:42:06;98223.00;;;20.10
15062;BMP180;7630;50.306;8.566;2023-10-09T06:46:16;98235.00;;;20.10
15062;BMP180;7630;50.306;8.566;2023-10-09T06:50:28;98262.00;;;19.40
15062;BMP180;7630;50.306;8.566;2023-10-09T06:54:32;98254.00;;;20.70
15062;BMP180;7630;50.306;8.566;2023-10-09T06:58:35;98252.00;;;20.60
15062;BMP180;7630;50.306;8.566;2023-10-09T07:02:47;98270.00;;;21.20
15062;BMP180;7630;50.306;8.566;2023-10-09T07:06:48;98267.00;;;20.80
15062;BMP180;7630;50.306;8.566;2023-10-09T07:10:52;98278.00;;;20.50
15062;BMP180;7630;50.306;8.566;2023-10-09T07:14:54;98268.00;;;20.20
15062;BMP180;7630;50.306;8.566;2023-10-09T07:19:10;98272.00;;;20.60
15062;BMP180;7630;50.306;8.566;2023-10-09T07:23:13;98250.00;;;21.30
15062;BMP180;7630;50.306;8.566;2023-10-09T07:27:27;98256.00;;;21.20
15062;BMP180;7630;50.306;8.566;2023-10-09T07:31:43;98275.00;;;20.90
15062;BMP180;7630;50.306;8.566;2023-10-09T07:35:49;98293.00;;;21.30
15062;BMP180;7630;50.306;8.566;2023-10-09T07:39:55;98292.00;;;21.20
15062;BMP180;7630;50.306;8.566;2023-10-09T07:43:59;98300.00;;;21.40
15062;BMP180;7630;50.306;8.566;2023-10-09T07:48:02;98300.00;;;22.00
15062;BMP180;7630;50.306;8.566;2023-10-09T07:52:06;98296.00;;;22.30
15062;BMP180;7630;50.306;8.566;2023-10-09T07:56:07;98221.00;;;21.80
15062;BMP180;7630;50.306;8.566;2023-10-09T08:00:10;98298.00;;;21.90
15062;BMP180;7630;50.306;8.566;2023-10-09T08:04:14;98304.00;;;22.10
15062;BMP180;7630;50.306;8.566;2023-10-09T08:08:16;98315.00;;;21.50
15062;BMP180;7630;50.306;8.566;2023-10-09T08:12:39;98315.00;;;21.70
15062;BMP180;7630;50.306;8.566;2023-10-09T08:16:43;98313.00;;;22.30
15062;BMP180;7630;50.306;8.566;2023-10-09T08:20:44;98332.00;;;21.30
15062;BMP180;7630;50.306;8.566;2023-10-09T08:24:59;98349.00;;;21.70
15062;BMP180;7630;50.306;8.566;2023-10-09T08:29:02;98350.00;;;20.90
15062;BMP180;7630;50.306;8.566;2023-10-09T08:33:08;98350.00;;;21.50
15062;BMP180;7630;50.306;8.566;2023-10-09T08:37:31;98350.00;;;21.30
15062;BMP180;7630;50.306;8.566;2023-10-09T08:41:32;98338.00;;;21.30
15062;BMP180;7630;50.306;8.566;2023-10-09T08:45:35;98328.00;;;22.40
15062;BMP180;7630;50.306;8.566;2023-10-09T08:49:36;98339.00;;;22.80
15062;BMP180;7630;50.306;8.566;2023-10-09T08:53:39;98331.00;;;22.50
15062;BMP180;7630;50.306;8.566;2023-10-09T08:57:44;98335.00;;;22.70
15062;BMP180;7630;50.306;8.566;2023-10-09T09:01:48;98336.00;;;22.70
15062;BMP180;7630;50.306;8.566;2023-10-09T09:05:59;98337.00;;;22.70
15062;BMP180;7630;50.306;8.566;2023-10-09T09:10:04;98339.00;;;22.10
15062;BMP180;7630;50.306;8.566;2023-10-09T09:14:07;98326.00;;;22.20
15062;BMP180;7630;50.306;8.566;2023-10-09T09:18:10;98335.00;;;22.40
15062;BMP180;7630;50.306;8.566;2023-10-09T09:22:11;98352.00;;;23.00
15062;BMP180;7630;50.306;8.566;2023-10-09T09:26:14;98338.00;;;22.60
15062;BMP180;7630;50.306;8.566;2023-10-09T09:30:25;98333.00;;;23.70
15062;BMP180;7630;50.306;8.566;2023-10-09T09:34:25;98335.00;;;24.30
15062;BMP180;7630;50.306;8.566;2023-10-09T09:38:30;98334.00;;;23.00
15062;BMP180;7630;50.306;8.566;2023-10-09T09:42:33;98349.00;;;22.80
15062;BMP180;7630;50.306;8.566;2023-10-09T09:46:35;98367.00;;;22.80
15062;BMP180;7630;50.306;8.566;2023-10-09T09:50:38;98372.00;;;23.50
15062;BMP180;7630;50.306;8.566;2023-10-09T09:54:41;98371.00;;;23.30
15062;BMP180;7630;50.306;8.566;2023-10-09T09:58:45;98376.00;;;23.10
15062;BMP180;7630;50.306;8.566;2023-10-09T10:02:48;98335.00;;;23.20
15062;BMP180;7630;50.306;8.566;2023-10-09T10:06:50;98352.00;;;23.10
15062;BMP180;7630;50.306;8.566;2023-10-09T10:10:52;98342.00;;;22.80
15062;BMP180;7630;50.306;8.566;2023-10-09T10:14:57;98346.00;;;22.50
15062;BMP180;7630;50.306;8.566;2023-10-09T10:19:10;98359.00;;;23.20
15062;BMP180;7630;50.306;8.566;2023-10-09T10:23:18;98349.00;;;23.10
15062;BMP180;7630;50.306;8.566;2023-10-09T10:27:21;98387.00;;;22.90
15062;BMP180;7630;50.306;8.566;2023-10-09T10:31:51;98352.00;;;22.80
15062;BMP180;7630;50.306;8.566;2023-10-09T10:35:45;98345.00;;;23.50
15062;BMP180;7630;50.306;8.566;2023-10-09T10:39:51;98335.00;;;24.00
15062;BMP180;7630;50.306;8.566;2023-10-09T10:43:54;98308.00;;;23.70
15062;BMP180;7630;50.306;8.566;2023-10-09T10:47:55;98304.00;;;23.90
15062;BMP180;7630;50.306;8.566;2023-10-09T10:51:58;98289.00;;;23.90
15062;BMP180;7630;50.306;8.566;2023-10-09T10:56:04;98287.00;;;24.10
15062;BMP180;7630;50.306;8.566;2023-10-09T11:00:16;98275.00;;;24.40
15062;BMP180;7630;50.306;8.566;2023-10-09T11:04:36;98269.00;;;24.30
15062;BMP180;7630;50.306;8.566;2023-10-09T11:08:46;98274.00;;;24.20
15062;BMP180;7630;50.306;8.566;2023-10-09T11:12:57;98279.00;;;24.90
15062;BMP180;7630;50.306;8.566;2023-10-09T11:17:16;98265.00;;;25.20
15062;BMP180;7630;50.306;8.566;2023-10-09T11:21:20;98266.00;;;25.60
15062;BMP180;7630;50.306;8.566;2023-10-09T11:25:23;98255.00;;;25.70
15062;BMP180;7630;50.306;8.566;2023-10-09T11:29:26;98254.00;;;25.80
15062;BMP180;7630;50.306;8.566;2023-10-09T11:37:55;98240.00;;;26.10
15062;BMP180;7630;50.306;8.566;2023-10-09T11:42:08;98242.00;;;25.70
15062;BMP180;7630;50.306;8.566;2023-10-09T11:46:10;98232.00;;;25.40
15062;BMP180;7630;50.306;8.566;2023-10-09T11:50:16;98228.00;;;24.80
15062;BMP180;7630;50.306;8.566;2023-10-09T11:54:33;98230.00;;;24.50
15062;BMP180;7630;50.306;8.566;2023-10-09T11:58:34;98220.00;;;24.70
15062;BMP180;7630;50.306;8.566;2023-10-09T12:02:37;98225.00;;;25.80
15062;BMP180;7630;50.306;8.566;2023-10-09T12:06:41;98226.00;;;26.60
15062;BMP180;7630;50.306;8.566;2023-10-09T12:10:44;98228.00;;;26.10
15062;BMP180;7630;50.306;8.566;2023-10-09T12:14:45;98227.00;;;26.00
15062;BMP180;7630;50.306;8.566;2023-10-09T12:18:46;98224.00;;;24.90
15062;BMP180;7630;50.306;8.566;2023-10-09T12:22:49;98230.00;;;24.70
15062;BMP180;7630;50.306;8.566;2023-10-09T12:26:51;98223.00;;;24.00
15062;BMP180;7630;50.306;8.566;2023-10-09T12:30:53;98220.00;;;24.50
15062;BMP180;7630;50.306;8.566;2023-10-09T12:34:54;98220.00;;;24.60
15062;BMP180;7630;50.306;8.566;2023-10-09T12:38:57;98224.00;;;23.80
15062;BMP180;7630;50.306;8.566;2023-10-09T12:43:02;98225.00;;;24.60
15062;BMP180;7630;50.306;8.566;2023-10-09T12:47:03;98225.00;;;24.70
15062;BMP180;7630;50.306;8.566;2023-10-09T12:51:06;98213.00;;;25.20
15062;BMP180;7630;50.306;8.566;2023-10-09T12:55:08;98154.00;;;26.00
15062;BMP180;7630;50.306;8.566;2023-10-09T12:59:10;98224.00;;;26.30
15062;BMP180;7630;50.306;8.566;2023-10-09T13:03:19;98228.00;;;27.20
15062;BMP180;7630;50.306;8.566;2023-10-09T13:07:18;98224.00;;;26.70
15062;BMP180;7630;50.306;8.566;2023-10-09T13:11:21;98228.00;;;24.90
15062;BMP180;7630;50.306;8.566;2023-10-09T13:15:24;98229.00;;;25.30
15062;BMP180;7630;50.306;8.566;2023-10-09T13:19:25;98219.00;;;24.80
15062;BMP180;7630;50.306;8.566;2023-10-09T13:23:26;98216.00;;;25.10
15062;BMP180;7630;50.306;8.566;2023-10-09T13:27:29;98217.00;;;24.90
15062;BMP180;7630;50.306;8.566;2023-10-09T13:31:32;98216.00;;;25.40
15062;BMP180;7630;50.306;8.566;2023-10-09T13:35:36;98207.00;;;24.30
15062;BMP180;7630;50.306;8.566;2023-10-09T13:39:42;98218.00;;;25.10
15062;BMP180;7630;50.306;8.566;2023-10-09T13:43:56;98216.00;;;25.80
15062;BMP180;7630;50.306;8.566;2023-10-09T13:48:00;98223.00;;;25.30
15062;BMP180;7630;50.306;8.566;2023-10-09T13:52:03;98228.00;;;25.90
15062;BMP180;7630;50.306;8.566;2023-10-09T13:56:10;98228.00;;;26.60
15062;BMP180;7630;50.306;8.566;2023-10-09T14:00:14;98232.00;;;26.50
15062;BMP180;7630;50.306;8.566;2023-10-09T14:04:17;98242.00;;;26.70
15062;BMP180;7630;50.306;8.566;2023-10-09T14:08:21;98242.00;;;26.30
15062;BMP180;7630;50.306;8.566;2023-10-09T14:12:27;98240.00;;;26.50
15062;BMP180;7630;50.306;8.566;2023-10-09T14:16:32;98249.00;;;26.80
15062;BMP180;7630;50.306;8.566;2023-10-09T14:20:33;98258.00;;;24.70
15062;BMP180;7630;50.306;8.566;2023-10-09T14:24:35;98272.00;;;24.10
15062;BMP180;7630;50.306;8.566;2023-10-09T14:28:37;98271.00;;;22.70
15062;BMP180;7630;50.306;8.566;2023-10-09T14:32:38;98268.00;;;23.80
15062;BMP180;7630;50.306;8.566;2023-10-09T14:36:41;98271.00;;;23.50
15062;BMP180;7630;50.306;8.566;2023-10-09T14:40:45;98272.00;;;23.50
15062;BMP180;7630;50.306;8.566;2023-10-09T14:44:46;98274.00;;;23.60
15062;BMP180;7630;50.306;8.566;2023-10-09T14:48:48;98273.00;;;23.20
15062;BMP180;7630;50.306;8.566;2023-10-09T14:52:50;98264.00;;;24.50
15062;BMP180;7630;50.306;8.566;2023-10-09T14:56:51;98264.00;;;25.40
15062;BMP180;7630;50.306;8.566;2023-10-09T15:00:55;98262.00;;;24.80
15062;BMP180;7630;50.306;8.566;2023-10-09T15:04:56;98267.00;;;24.70
15062;BMP180;7630;50.306;8.566;2023-10-09T15:08:59;98275.00;;;25.10
15062;BMP180;7630;50.306;8.566;2023-10-09T15:13:02;98268.00;;;25.20
15062;BMP180;7630;50.306;8.566;2023-10-09T15:17:05;98257.00;;;25.00
15062;BMP180;7630;50.306;8.566;2023-10-09T15:21:07;98239.00;;;24.40
15062;BMP180;7630;50.306;8.566;2023-10-09T15:25:10;98253.00;;;25.10
15062;BMP180;7630;50.306;8.566;2023-10-09T15:29:18;98258.00;;;25.40
15062;BMP180;7630;50.306;8.566;2023-10-09T15:33:20;98256.00;;;25.00
15062;BMP180;7630;50.306;8.566;2023-10-09T15:37:23;98249.00;;;24.10
15062;BMP180;7630;50.306;8.566;2023-10-09T15:41:28;98241.00;;;23.60
15062;BMP180;7630;50.306;8.566;2023-10-09T15:45:39;98259.00;;;23.90
15062;BMP180;7630;50.306;8.566;2023-10-09T15:49:38;98258.00;;;23.90
15062;BMP180;7630;50.306;8.566;2023-10-09T15:53:45;98244.00;;;22.70
15062;BMP180;7630;50.306;8.566;2023-10-09T15:57:47;98251.00;;;22.90
15062;BMP180;7630;50.306;8.566;2023-10-09T16:01:52;98243.00;;;23.20
15062;BMP180;7630;50.306;8.566;2023-10-09T16:05:57;98242.00;;;22.70
15062;BMP180;7630;50.306;8.566;2023-10-09T16:09:58;98250.00;;;23.70
15062;BMP180;7630;50.306;8.566;2023-10-09T16:13:59;98256.00;;;23.40
15062;BMP180;7630;50.306;8.566;2023-10-09T16:18:01;98257.00;;;23.30
15062;BMP180;7630;50.306;8.566;2023-10-09T16:22:07;98261.00;;;23.70
15062;BMP180;7630;50.306;8.566;2023-10-09T16:26:09;98262.00;;;22.80
15062;BMP180;7630;50.306;8.566;2023-10-09T16:30:11;98274.00;;;23.10
15062;BMP180;7630;50.306;8.566;2023-10-09T16:34:14;98271.00;;;22.90
15062;BMP180;7630;50.306;8.566;2023-10-09T16:38:16;98273.00;;;22.70
15062;BMP180;7630;50.306;8.566;2023-10-09T16:42:17;98271.00;;;23.10
15062;BMP180;7630;50.306;8.566;2023-10-09T16:46:19;98263.00;;;23.20
15062;BMP180;7630;50.306;8.566;2023-10-09T16:50:22;98275.00;;;22.50
15062;BMP180;7630;50.306;8.566;2023-10-09T16:54:28;98275.00;;;22.60
15062;BMP180;7630;50.306;8.566;2023-10-09T16:58:29;98287.00;;;22.30
15062;BMP180;7630;50.306;8.566;2023-10-09T17:02:30;98292.00;;;22.60
15062;BMP180;7630;50.306;8.566;2023-10-09T17:06:35;98291.00;;;22.90
15062;BMP180;7630;50.306;8.566;2023-10-09T17:10:36;98299.00;;;22.10
15062;BMP180;7630;50.306;8.566;2023-10-09T17:14:40;98289.00;;;22.40
15062;BMP180;7630;50.306;8.566;2023-10-09T17:18:41;98279.00;;;22.10
15062;BMP180;7630;50.306;8.566;2023-10-09T17:22:42;98273.00;;;22.40
15062;BMP180;7630;50.306;8.566;2023-10-09T17:26:44;98281.00;;;21.90
15062;BMP180;7630;50.306;8.566;2023-10-09T17:30:46;98281.00;;;22.20
15062;BMP180;7630;50.306;8.566;2023-10-09T17:34:49;98281.00;;;22.10
15062;BMP180;7630;50.306;8.566;2023-10-09T17:38:50;98288.00;;;21.70
15062;BMP180;7630;50.306;8.566;2023-10-09T17:42:51;98294.00;;;22.60
15062;BMP180;7630;50.306;8.566;2023-10-09T17:46:55;98297.00;;;22.20
15062;BMP180;7630;50.306;8.566;2023-10-09T17:50:56;98290.00;;;22.10
15062;BMP180;7630;50.306;8.566;2023-10-09T17:54:57;98301.00;;;22.70
15062;BMP180;7630;50.306;8.566;2023-10-09T17:59:00;98302.00;;;22.50
15062;BMP180;7630;50.306;8.566;2023-10-09T18:03:04;98302.00;;;22.60
15062;BMP180;7630;50.306;8.566;2023-10-09T18:07:06;98307.00;;;22.10
15062;BMP180;7630;50.306;8.566;2023-10-09T18:11:10;98312.00;;;21.50
15062;BMP180;7630;50.306;8.566;2023-10-09T18:15:13;98316.00;;;21.20
15062;BMP180;7630;50.306;8.566;2023-10-09T18:19:15;98326.00;;;21.90
15062;BMP180;7630;50.306;8.566;2023-10-09T18:23:17;98320.00;;;20.70
15062;BMP180;7630;50.306;8.566;2023-10-09T18:27:21;98320.00;;;21.40
15062;BMP180;7630;50.306;8.566;2023-10-09T18:31:23;98314.00;;;21.40
15062;BMP180;7630;50.306;8.566;2023-10-09T18:35:24;98324.00;;;21.30
15062;BMP180;7630;50.306;8.566;2023-10-09T18:39:27;98317.00;;;20.10
15062;BMP180;7630;50.306;8.566;2023-10-09T18:43:30;98329.00;;;20.40
15062;BMP180;7630;50.306;8.566;2023-10-09T18:47:31;98324.00;;;20.70
15062;BMP180;7630;50.306;8.566;2023-10-09T18:51:35;98335.00;;;20.20
15062;BMP180;7630;50.306;8.566;2023-10-09T18:55:36;98329.00;;;20.70
15062;BMP180;7630;50.306;8.566;2023-10-09T18:59:38;98325.00;;;21.00
15062;BMP180;7630;50.306;8.566;2023-10-09T19:03:40;98325.00;;;20.70
15062;BMP180;7630;50.306;8.566;2023-10-09T19:07:41;98332.00;;;21.00
15062;BMP180;7630;50.306;8.566;2023-10-09T19:11:42;98334.00;;;20.90
15062;BMP180;7630;50.306;8.566;2023-10-09T19:15:46;98332.00;;;21.00
15062;BMP180;7630;50.306;8.566;2023-10-09T19:19:49;98337.00;;;20.80
15062;BMP180;7630;50.306;8.566;2023-10-09T19:23:50;98330.00;;;21.10
15062;BMP180;7630;50.306;8.566;2023-10-09T19:27:51;98334.00;;;20.80
15062;BMP180;7630;50.306;8.566;2023-10-09T19:31:52;98337.00;;;20.80
15062;BMP180;7630;50.306;8.566;2023-10-09T19:36:02;98259.00;;;20.40
15062;BMP180;7630;50.306;8.566;2023-10-09T19:40:05;98337.00;;;20.50
15062;BMP180;7630;50.306;8.566;2023-10-09T19:44:10;98343.00;;;20.20
15062;BMP180;7630;50.306;8.566;2023-10-09T19:48:12;98338.00;;;20.10
15062;BMP180;7630;50.306;8.566;2023-10-09T19:52:14;98343.00;;;20.20
15062;BMP180;7630;50.306;8.566;2023-10-09T19:56:15;98344.00;;;20.70
15062;BMP180;7630;50.306;8.566;2023-10-09T20:00:18;98353.00;;;20.00
15062;BMP180;7630;50.306;8.566;2023-10-09T20:04:23;98363.00;;;20.00
15062;BMP180;7630;50.306;8.566;2023-10-09T20:08:26;98360.00;;;20.70
15062;BMP180;7630;50.306;8.566;2023-10-09T20:12:27;98370.00;;;20.50
15062;BMP180;7630;50.306;8.566;2023-10-09T20:16:30;98358.00;;;20.10
15062;BMP180;7630;50.306;8.566;2023-10-09T20:20:41;98372.00;;;20.20
15062;BMP180;7630;50.306;8.566;2023-10-09T20:24:45;98374.00;;;20.10
15062;BMP180;7630;50.306;8.566;2023-10-09T20:28:47;98382.00;;;20.30
15062;BMP180;7630;50.306;8.566;2023-10-09T20:32:48;98383.00;;;20.00
15062;BMP180;7630;50.306;8.566;2023-10-09T20:36:49;98382.00;;;20.10
15062;BMP180;7630;50.306;8.566;2023-10-09T20:40:53;98386.00;;;20.20
15062;BMP180;7630;50.306;8.566;2023-10-09T20:44:54;98382.00;;;19.90
15062;BMP180;7630;50.306;8.566;2023-10-09T20:48:55;98387.00;;;19.80
15062;BMP180;7630;50.306;8.566;2023-10-09T20:52:56;98378.00;;;19.90
15062;BMP180;7630;50.306;8.566;2023-10-09T20:57:00;98384.00;;;20.00
15062;BMP180;7630;50.306;8.566;2023-10-09T21:01:07;98392.00;;;19.90
15062;BMP180;7630;50.306;8.566;2023-10-09T21:05:10;98398.00;;;19.80
15062;BMP180;7630;50.306;8.566;2023-10-09T21:09:13;98388.00;;;19.80
15062;BMP180;7630;50.306;8.566;2023-10-09T21:13:14;98385.00;;;19.60
15062;BMP180;7630;50.306;8.566;2023-10-09T21:17:15;98387.00;;;19.50
15062;BMP180;7630;50.306;8.566;2023-10-09T21:21:18;98394.00;;;19.60
15062;BMP180;7630;50.306;8.566;2023-10-09T21:25:19;98405.00;;;19.80
15062;BMP180;7630;50.306;8.566;2023-10-09T21:29:21;98397.00;;;19.60
15062;BMP180;7630;50.306;8.566;2023-10-09T21:33:22;98396.00;;;19.50
15062;BMP180;7630;50.306;8.566;2023-10-09T21:37:25;98392.00;;;19.40
15062;BMP180;7630;50.306;8.566;2023-10-09T21:41:27;98389.00;;;19.30
15062;BMP180;7630;50.306;8.566;2023-10-09T21:45:28;98395.00;;;19.20
15062;BMP180;7630;50.306;8.566;2023-10-09T21:49:29;98388.00;;;19.30
15062;BMP180;7630;50.306;8.566;2023-10-09T21:53:30;98397.00;;;19.30
15062;BMP180;7630;50.306;8.566;2023-10-09T21:57:31;98389.00;;;19.30
15062;BMP180;7630;50.306;8.566;2023-10-09T22:01:33;98390.00;;;19.20
15062;BMP180;7630;50.306;8.566;2023-10-09T22:05:35;98386.00;;;19.40
15062;BMP180;7630;50.306;8.566;2023-10-09T22:09:45;98394.00;;;19.40
15062;BMP180;7630;50.306;8.566;2023-10-09T22:13:46;98395.00;;;19.20
15062;BMP180;7630;50.306;8.566;2023-10-09T22:17:47;98393.00;;;19.20
15062;BMP180;7630;50.306;8.566;2023-10-09T22:21:49;98382.00;;;19.20
15062;BMP180;7630;50.306;8.566;2023-10-09T22:25:50;98385.00;;;19.10
15062;BMP180;7630;50.306;8.566;2023-10-09T22:29:59;98380.00;;;19.30
15062;BMP180;7630;50.306;8.566;2023-10-09T22:34:02;98379.00;;;19.00
15062;BMP180;7630;50.306;8.566;2023-10-09T22:38:05;98380.00;;;19.00
15062;BMP180;7630;50.306;8.566;2023-10-09T22:42:14;98375.00;;;19.30
15062;BMP180;7630;50.306;8.566;2023-10-09T22:46:18;98378.00;;;19.20
15062;BMP180;7630;50.306;8.566;2023-10-09T22:50:21;98374.00;;;18.70
15062;BMP180;7630;50.306;8.566;2023-10-09T22:54:23;98365.00;;;19.00
15062;BMP180;7630;50.306;8.566;2023-10-09T22:58:24;98374.00;;;19.20
15062;BMP180;7630;50.306;8.566;2023-10-09T23:02:27;98373.00;;;19.40
15062;BMP180;7630;50.306;8.566;2023-10-09T23:06:39;98370.00;;;18.80
15062;BMP180;7630;50.306;8.566;2023-10-09T23:10:46;98370.00;;;18.70
15062;BMP180;7630;50.306;8.566;2023-10-09T23:14:54;98380.00;;;18.80
15062;BMP180;7630;50.306;8.566;2023-10-09T23:18:56;98378.00;;;18.80
15062;BMP180;7630;50.306;8.566;2023-10-09T23:22:59;98377.00;;;18.40
15062;BMP180;7630;50.306;8.566;2023-10-09T23:27:00;98391.00;;;18.60
15062;BMP180;7630;50.306;8.566;2023-10-09T23:31:04;98379.00;;;18.40
15062;BMP180;7630;50.306;8.566;2023-10-09T23:35:25;98383.00;;;18.70
15062;BMP180;7630;50.306;8.566;2023-10-09T23:39:29;98385.00;;;18.70
15062;BMP180;7630;50.306;8.566;2023-10-09T23:43:49;98387.00;;;19.20
15062;BMP180;7630;50.306;8.566;2023-10-09T23:47:52;98383.00;;;18.70
15062;BMP180;7630;50.306;8.566;2023-10-09T23:51:53;98381.00;;;18.80
15062;BMP180;7630;50.306;8.566;2023-10-09T23:55:58;98388.00;;;19.30
